sensor_id;sensor_type;location;lat;lon;timestamp;pressure;altitude;pressure_sealevel;temperature;humidity
68525;BME280;55524;51.380;13.372;2022-09-09T00:01:14;100193.78;;;14.26;99.24
68525;BME280;55524;51.380;13.372;2022-09-09T00:04:09;100196.44;;;14.26;98.64
68525;BME280;55524;51.380;13.372;2022-09-09T00:07:15;100197.56;;;14.38;97.07
68525;BME280;55524;51.380;13.372;2022-09-09T00:10:23;100190.03;;;14.30;97.31
68525;BME280;55524;51.380;13.372;2022-09-09T00:18:20;100189.06;;;14.31;96.44
68525;BME280;55524;51.380;13.372;2022-09-09T00:20:58;100189.41;;;14.25;97.12
68525;BME280;55524;51.380;13.372;2022-09-09T00:23:30;100181.41;;;14.25;97.12
68525;BME280;55524;51.380;13.372;2022-09-09T00:31:31;100191.91;;;13.96;99.51
68525;BME280;55524;51.380;13.372;2022-09-09T00:36:56;100189.41;;;13.93;99.51
68525;BME280;55524;51.380;13.372;2022-09-09T00:39:40;100193.78;;;13.94;99.89
68525;BME280;55524;51.380;13.372;2022-09-09T00:42:18;100185.72;;;13.96;99.71
68525;BME280;55524;51.380;13.372;2022-09-09T00:52:51;100184.78;;;13.97;98.39
68525;BME280;55524;51.380;13.372;2022-09-09T00:58:12;100187.69;;;13.92;98.53
68525;BME280;55524;51.380;13.372;2022-09-09T01:01:06;100181.44;;;13.93;98.10
68525;BME280;55524;51.380;13.372;2022-09-09T01:03:56;100187.09;;;14.03;97.64
68525;BME280;55524;51.380;13.372;2022-09-09T01:06:35;100194.91;;;13.90;99.04
68525;BME280;55524;51.380;13.372;2022-09-09T01:09:54;100191.13;;;13.94;98.28
68525;BME280;55524;51.380;13.372;2022-09-09T01:12:47;100193.09;;;13.91;98.24
68525;BME280;55524;51.380;13.372;2022-09-09T01:15:27;100194.81;;;13.92;98.10
68525;BME280;55524;51.380;13.372;2022-09-09T01:18:06;100201.13;;;13.89;98.15
68525;BME280;55524;51.380;13.372;2022-09-09T01:21:00;100199.19;;;13.93;97.80
68525;BME280;55524;51.380;13.372;2022-09-09T01:26:30;100202.78;;;13.92;97.96
68525;BME280;55524;51.380;13.372;2022-09-09T01:28:58;100205.59;;;13.89;97.78
68525;BME280;55524;51.380;13.372;2022-09-09T01:31:41;100202.09;;;13.88;97.72
68525;BME280;55524;51.380;13.372;2022-09-09T01:34:12;100200.72;;;13.81;98.36
68525;BME280;55524;51.380;13.372;2022-09-09T01:39:08;100190.44;;;13.75;98.44
68525;BME280;55524;51.380;13.372;2022-09-09T01:41:35;100201.13;;;13.73;98.92
68525;BME280;55524;51.380;13.372;2022-09-09T01:44:01;100196.31;;;13.64;99.93
68525;BME280;55524;51.380;13.372;2022-09-09T01:46:28;100198.78;;;13.51;100.00
68525;BME280;55524;51.380;13.372;2022-09-09T01:48:55;100196.44;;;13.45;100.00
68525;BME280;55524;51.380;13.372;2022-09-09T01:51:22;100207.28;;;13.58;100.00
68525;BME280;55524;51.380;13.372;2022-09-09T01:53:49;100202.38;;;13.50;100.00
68525;BME280;55524;51.380;13.372;2022-09-09T01:59:28;100203.59;;;13.61;99.71
68525;BME280;55524;51.380;13.372;2022-09-09T02:02:17;100195.63;;;13.61;99.63
68525;BME280;55524;51.380;13.372;2022-09-09T02:05:38;100196.47;;;13.61;99.54
68525;BME280;55524;51.380;13.372;2022-09-09T02:08:06;100204.78;;;13.55;100.00
68525;BME280;55524;51.380;13.372;2022-09-09T02:10:55;100195.44;;;13.48;100.00
68525;BME280;55524;51.380;13.372;2022-09-09T02:13:22;100197.63;;;13.40;100.00
68525;BME280;55524;51.380;13.372;2022-09-09T02:18:40;100207.47;;;13.20;100.00
68525;BME280;55524;51.380;13.372;2022-09-09T02:21:10;100199.91;;;13.13;100.00
68525;BME280;55524;51.380;13.372;2022-09-09T02:23:39;100199.13;;;13.11;100.00
68525;BME280;55524;51.380;13.372;2022-09-09T02:26:08;100212.22;;;13.14;100.00
68525;BME280;55524;51.380;13.372;2022-09-09T02:28:37;100205.34;;;13.10;100.00
68525;BME280;55524;51.380;13.372;2022-09-09T02:31:06;100210.66;;;13.10;100.00
68525;BME280;55524;51.380;13.372;2022-09-09T02:33:41;100208.00;;;13.10;100.00
68525;BME280;55524;51.380;13.372;2022-09-09T02:36:10;100203.09;;;13.19;100.00
68525;BME280;55524;51.380;13.372;2022-09-09T02:38:50;100198.53;;;13.23;100.00
68525;BME280;55524;51.380;13.372;2022-09-09T02:41:33;100202.41;;;13.33;100.00
68525;BME280;55524;51.380;13.372;2022-09-09T02:44:00;100204.91;;;13.36;100.00
68525;BME280;55524;51.380;13.372;2022-09-09T02:52:22;100205.91;;;13.34;99.82
68525;BME280;55524;51.380;13.372;2022-09-09T02:54:55;100210.22;;;13.36;99.11
68525;BME280;55524;51.380;13.372;2022-09-09T02:57:27;100208.00;;;13.44;98.83
68525;BME280;55524;51.380;13.372;2022-09-09T02:59:55;100201.59;;;13.48;98.21
68525;BME280;55524;51.380;13.372;2022-09-09T03:02:22;100211.09;;;13.52;98.13
68525;BME280;55524;51.380;13.372;2022-09-09T03:04:51;100204.00;;;13.53;97.99
68525;BME280;55524;51.380;13.372;2022-09-09T03:07:21;100206.75;;;13.51;97.88
68525;BME280;55524;51.380;13.372;2022-09-09T03:09:47;100203.28;;;13.49;98.26
68525;BME280;55524;51.380;13.372;2022-09-09T03:12:14;100209.09;;;13.40;98.44
68525;BME280;55524;51.380;13.372;2022-09-09T03:14:40;100212.41;;;13.28;99.91
68525;BME280;55524;51.380;13.372;2022-09-09T03:17:07;100211.81;;;13.23;100.00
68525;BME280;55524;51.380;13.372;2022-09-09T03:19:35;100217.38;;;13.17;100.00
68525;BME280;55524;51.380;13.372;2022-09-09T03:22:02;100217.91;;;13.06;100.00
68525;BME280;55524;51.380;13.372;2022-09-09T03:24:30;100216.91;;;13.09;100.00
68525;BME280;55524;51.380;13.372;2022-09-09T03:26:56;100211.84;;;13.04;100.00
68525;BME280;55524;51.380;13.372;2022-09-09T03:29:23;100219.41;;;12.94;100.00
68525;BME280;55524;51.380;13.372;2022-09-09T03:31:49;100220.50;;;12.90;100.00
68525;BME280;55524;51.380;13.372;2022-09-09T03:34:17;100214.00;;;12.78;100.00
68525;BME280;55524;51.380;13.372;2022-09-09T03:36:43;100206.69;;;12.66;100.00
68525;BME280;55524;51.380;13.372;2022-09-09T03:39:14;100215.00;;;12.59;100.00
68525;BME280;55524;51.380;13.372;2022-09-09T03:42:01;100210.16;;;12.49;100.00
68525;BME280;55524;51.380;13.372;2022-09-09T03:44:30;100208.75;;;12.42;100.00
68525;BME280;55524;51.380;13.372;2022-09-09T03:47:09;100209.06;;;12.36;100.00
68525;BME280;55524;51.380;13.372;2022-09-09T03:49:35;100203.81;;;12.35;100.00
68525;BME280;55524;51.380;13.372;2022-09-09T03:52:01;100205.75;;;12.31;100.00
68525;BME280;55524;51.380;13.372;2022-09-09T03:54:30;100206.91;;;12.25;100.00
68525;BME280;55524;51.380;13.372;2022-09-09T03:56:57;100218.69;;;12.20;100.00
68525;BME280;55524;51.380;13.372;2022-09-09T03:59:23;100222.56;;;12.13;100.00
68525;BME280;55524;51.380;13.372;2022-09-09T04:01:50;100219.97;;;12.11;100.00
68525;BME280;55524;51.380;13.372;2022-09-09T04:04:21;100219.97;;;12.11;100.00
68525;BME280;55524;51.380;13.372;2022-09-09T04:06:55;100210.38;;;12.09;100.00
68525;BME280;55524;51.380;13.372;2022-09-09T04:09:22;100215.38;;;12.15;100.00
68525;BME280;55524;51.380;13.372;2022-09-09T04:11:57;100214.66;;;12.11;100.00
68525;BME280;55524;51.380;13.372;2022-09-09T04:14:23;100210.44;;;12.07;100.00
68525;BME280;55524;51.380;13.372;2022-09-09T04:16:57;100218.56;;;12.04;100.00
68525;BME280;55524;51.380;13.372;2022-09-09T04:19:26;100218.56;;;12.04;100.00
68525;BME280;55524;51.380;13.372;2022-09-09T04:21:53;100216.75;;;12.04;100.00
68525;BME280;55524;51.380;13.372;2022-09-09T04:24:19;100214.09;;;12.04;100.00
68525;BME280;55524;51.380;13.372;2022-09-09T04:26:49;100210.59;;;12.04;100.00
68525;BME280;55524;51.380;13.372;2022-09-09T04:29:36;100203.50;;;12.04;100.00
68525;BME280;55524;51.380;13.372;2022-09-09T04:32:02;100213.25;;;12.04;100.00
68525;BME280;55524;51.380;13.372;2022-09-09T04:34:49;100214.25;;;12.01;100.00
68525;BME280;55524;51.380;13.372;2022-09-09T04:37:36;100214.25;;;12.01;100.00
68525;BME280;55524;51.380;13.372;2022-09-09T04:40:02;100223.28;;;11.97;100.00
68525;BME280;55524;51.380;13.372;2022-09-09T04:42:29;100219.81;;;11.95;100.00
68525;BME280;55524;51.380;13.372;2022-09-09T04:44:58;100225.28;;;11.92;100.00
68525;BME280;55524;51.380;13.372;2022-09-09T04:47:44;100223.53;;;11.91;100.00
68525;BME280;55524;51.380;13.372;2022-09-09T04:50:41;100230.63;;;11.91;100.00
68525;BME280;55524;51.380;13.372;2022-09-09T04:53:41;100224.56;;;11.89;100.00
68525;BME280;55524;51.380;13.372;2022-09-09T04:56:11;100229.78;;;11.90;100.00
68525;BME280;55524;51.380;13.372;2022-09-09T04:58:42;100225.28;;;11.92;100.00
68525;BME280;55524;51.380;13.372;2022-09-09T05:01:19;100230.63;;;11.91;100.00
68525;BME280;55524;51.380;13.372;2022-09-09T05:03:58;100219.97;;;11.92;100.00
68525;BME280;55524;51.380;13.372;2022-09-09T05:06:36;100215.47;;;11.94;100.00
68525;BME280;55524;51.380;13.372;2022-09-09T05:09:03;100215.41;;;11.96;100.00
68525;BME280;55524;51.380;13.372;2022-09-09T05:11:31;100213.63;;;11.96;100.00
68525;BME280;55524;51.380;13.372;2022-09-09T05:13:58;100226.69;;;11.99;100.00
68525;BME280;55524;51.380;13.372;2022-09-09T05:16:33;100219.63;;;12.00;100.00
68525;BME280;55524;51.380;13.372;2022-09-09T05:19:07;100223.53;;;12.10;100.00
68525;BME280;55524;51.380;13.372;2022-09-09T05:21:36;100220.13;;;12.08;100.00
68525;BME280;55524;51.380;13.372;2022-09-09T05:24:03;100224.41;;;12.11;100.00
68525;BME280;55524;51.380;13.372;2022-09-09T05:26:38;100223.09;;;12.19;100.00
68525;BME280;55524;51.380;13.372;2022-09-09T05:29:05;100234.41;;;12.23;100.00
68525;BME280;55524;51.380;13.372;2022-09-09T05:31:34;100239.53;;;12.27;100.00
68525;BME280;55524;51.380;13.372;2022-09-09T05:34:00;100242.34;;;12.42;100.00
68525;BME280;55524;51.380;13.372;2022-09-09T05:36:40;100243.69;;;12.50;100.00
68525;BME280;55524;51.380;13.372;2022-09-09T05:39:23;100245.97;;;12.58;100.00
68525;BME280;55524;51.380;13.372;2022-09-09T05:42:13;100241.81;;;12.71;100.00
68525;BME280;55524;51.380;13.372;2022-09-09T05:44:39;100248.13;;;12.86;100.00
68525;BME280;55524;51.380;13.372;2022-09-09T05:47:08;100253.44;;;13.03;100.00
68525;BME280;55524;51.380;13.372;2022-09-09T05:49:35;100251.88;;;13.17;100.00
68525;BME280;55524;51.380;13.372;2022-09-09T05:52:02;100255.78;;;13.44;100.00
68525;BME280;55524;51.380;13.372;2022-09-09T05:54:39;100249.56;;;13.78;100.00
68525;BME280;55524;51.380;13.372;2022-09-09T05:57:09;100248.47;;;13.98;100.00
68525;BME280;55524;51.380;13.372;2022-09-09T05:59:35;100240.44;;;14.16;99.69
68525;BME280;55524;51.380;13.372;2022-09-09T06:02:02;100243.78;;;14.35;99.10
68525;BME280;55524;51.380;13.372;2022-09-09T06:04:31;100239.06;;;14.56;99.57
68525;BME280;55524;51.380;13.372;2022-09-09T06:07:03;100242.31;;;14.77;98.70
68525;BME280;55524;51.380;13.372;2022-09-09T06:09:33;100249.13;;;14.97;96.44
68525;BME280;55524;51.380;13.372;2022-09-09T06:12:10;100237.19;;;15.18;94.17
68525;BME280;55524;51.380;13.372;2022-09-09T06:14:42;100230.50;;;15.41;91.32
68525;BME280;55524;51.380;13.372;2022-09-09T06:17:08;100230.13;;;15.62;90.69
68525;BME280;55524;51.380;13.372;2022-09-09T06:19:34;100234.25;;;15.82;90.66
68525;BME280;55524;51.380;13.372;2022-09-09T06:22:03;100228.69;;;15.99;86.12
68525;BME280;55524;51.380;13.372;2022-09-09T06:24:30;100224.56;;;16.22;83.13
68525;BME280;55524;51.380;13.372;2022-09-09T06:27:05;100226.13;;;16.39;82.22
68525;BME280;55524;51.380;13.372;2022-09-09T06:29:31;100239.16;;;16.58;84.22
68525;BME280;55524;51.380;13.372;2022-09-09T06:31:57;100237.59;;;16.68;82.09
68525;BME280;55524;51.380;13.372;2022-09-09T06:34:24;100229.16;;;16.88;80.65
68525;BME280;55524;51.380;13.372;2022-09-09T06:37:03;100239.84;;;17.01;79.54
68525;BME280;55524;51.380;13.372;2022-09-09T06:39:35;100238.25;;;16.99;80.70
68525;BME280;55524;51.380;13.372;2022-09-09T06:42:42;100241.66;;;17.01;80.32
68525;BME280;55524;51.380;13.372;2022-09-09T06:45:23;100244.44;;;16.99;79.96
68525;BME280;55524;51.380;13.372;2022-09-09T06:47:50;100244.66;;;16.96;80.26
68525;BME280;55524;51.380;13.372;2022-09-09T06:51:01;100238.84;;;16.89;79.96
68525;BME280;55524;51.380;13.372;2022-09-09T06:53:28;100243.03;;;16.93;80.11
68525;BME280;55524;51.380;13.372;2022-09-09T06:55:54;100243.59;;;16.99;81.25
68525;BME280;55524;51.380;13.372;2022-09-09T06:58:21;100230.47;;;17.08;81.39
68525;BME280;55524;51.380;13.372;2022-09-09T07:01:12;100242.88;;;17.22;82.64
68525;BME280;55524;51.380;13.372;2022-09-09T07:03:50;100239.16;;;17.37;79.95
68525;BME280;55524;51.380;13.372;2022-09-09T07:06:18;100241.22;;;17.47;80.96
68525;BME280;55524;51.380;13.372;2022-09-09T07:08:50;100232.22;;;17.60;81.08
68525;BME280;55524;51.380;13.372;2022-09-09T07:11:17;100221.63;;;17.84;77.30
68525;BME280;55524;51.380;13.372;2022-09-09T07:13:46;100219.69;;;17.99;76.43
68525;BME280;55524;51.380;13.372;2022-09-09T07:16:18;100225.56;;;18.04;76.46
68525;BME280;55524;51.380;13.372;2022-09-09T07:18:44;100225.97;;;18.11;75.93
68525;BME280;55524;51.380;13.372;2022-09-09T07:21:14;100234.72;;;18.13;78.02
68525;BME280;55524;51.380;13.372;2022-09-09T07:23:42;100218.03;;;18.09;74.90
68525;BME280;55524;51.380;13.372;2022-09-09T07:26:18;100229.00;;;18.06;75.91
68525;BME280;55524;51.380;13.372;2022-09-09T07:29:17;100236.25;;;18.04;76.23
68525;BME280;55524;51.380;13.372;2022-09-09T07:32:09;100235.19;;;18.07;75.75
68525;BME280;55524;51.380;13.372;2022-09-09T07:35:16;100237.94;;;18.18;75.22
68525;BME280;55524;51.380;13.372;2022-09-09T07:38:01;100234.56;;;18.88;74.00
68525;BME280;55524;51.380;13.372;2022-09-09T07:40:27;100247.88;;;18.89;76.70
68525;BME280;55524;51.380;13.372;2022-09-09T07:42:55;100221.91;;;19.14;72.16
68525;BME280;55524;51.380;13.372;2022-09-09T07:45:25;100237.00;;;19.15;74.23
68525;BME280;55524;51.380;13.372;2022-09-09T07:47:54;100231.50;;;19.05;72.79
68525;BME280;55524;51.380;13.372;2022-09-09T07:50:31;100255.66;;;18.92;75.21
68525;BME280;55524;51.380;13.372;2022-09-09T07:52:58;100251.41;;;18.90;75.20
68525;BME280;55524;51.380;13.372;2022-09-09T07:55:25;100250.47;;;19.02;76.17
68525;BME280;55524;51.380;13.372;2022-09-09T07:57:53;100229.63;;;19.41;72.41
68525;BME280;55524;51.380;13.372;2022-09-09T08:00:20;100230.91;;;19.24;72.63
68525;BME280;55524;51.380;13.372;2022-09-09T08:02:48;100245.69;;;19.30;74.08
68525;BME280;55524;51.380;13.372;2022-09-09T08:05:23;100247.56;;;19.05;73.50
68525;BME280;55524;51.380;13.372;2022-09-09T08:07:50;100266.81;;;19.10;75.90
68525;BME280;55524;51.380;13.372;2022-09-09T08:10:16;100265.09;;;19.45;77.29
68525;BME280;55524;51.380;13.372;2022-09-09T08:13:04;100227.97;;;20.07;70.86
68525;BME280;55524;51.380;13.372;2022-09-09T08:15:50;100211.63;;;20.97;68.38
68525;BME280;55524;51.380;13.372;2022-09-09T08:18:25;100178.63;;;21.89;64.36
68525;BME280;55524;51.380;13.372;2022-09-09T08:21:37;100184.19;;;22.66;63.71
68525;BME280;55524;51.380;13.372;2022-09-09T08:24:24;100175.28;;;22.06;61.62
68525;BME280;55524;51.380;13.372;2022-09-09T08:27:23;100209.56;;;21.43;64.24
68525;BME280;55524;51.380;13.372;2022-09-09T08:29:52;100223.22;;;20.77;65.76
68525;BME280;55524;51.380;13.372;2022-09-09T08:32:47;100208.81;;;20.67;65.15
68525;BME280;55524;51.380;13.372;2022-09-09T08:38:10;100241.59;;;20.49;67.58
68525;BME280;55524;51.380;13.372;2022-09-09T08:50:54;100248.72;;;20.17;68.68
68525;BME280;55524;51.380;13.372;2022-09-09T08:53:54;100258.09;;;20.22;70.01
68525;BME280;55524;51.380;13.372;2022-09-09T08:56:44;100261.28;;;20.05;69.88
68525;BME280;55524;51.380;13.372;2022-09-09T08:59:34;100268.97;;;20.09;71.77
68525;BME280;55524;51.380;13.372;2022-09-09T09:02:07;100270.56;;;20.12;71.91
68525;BME280;55524;51.380;13.372;2022-09-09T09:05:09;100261.88;;;19.86;70.18
68525;BME280;55524;51.380;13.372;2022-09-09T09:08:03;100267.47;;;19.72;70.87
68525;BME280;55524;51.380;13.372;2022-09-09T09:10:57;100253.72;;;19.76;68.25
68525;BME280;55524;51.380;13.372;2022-09-09T09:13:44;100273.16;;;19.45;70.57
68525;BME280;55524;51.380;13.372;2022-09-09T09:16:34;100290.63;;;19.26;72.05
68525;BME280;55524;51.380;13.372;2022-09-09T09:19:11;100301.25;;;19.04;73.18
68525;BME280;55524;51.380;13.372;2022-09-09T09:21:48;100300.03;;;18.84;74.73
68525;BME280;55524;51.380;13.372;2022-09-09T09:24:20;100311.56;;;18.60;78.42
68525;BME280;55524;51.380;13.372;2022-09-09T09:26:48;100306.59;;;18.43;80.03
68525;BME280;55524;51.380;13.372;2022-09-09T09:29:33;100304.28;;;18.26;80.74
68525;BME280;55524;51.380;13.372;2022-09-09T09:32:02;100296.25;;;18.26;80.86
68525;BME280;55524;51.380;13.372;2022-09-09T09:34:29;100293.16;;;18.19;80.39
68525;BME280;55524;51.380;13.372;2022-09-09T09:36:59;100290.34;;;18.21;81.58
68525;BME280;55524;51.380;13.372;2022-09-09T09:39:32;100293.25;;;18.30;81.91
68525;BME280;55524;51.380;13.372;2022-09-09T09:42:11;100298.56;;;18.43;82.13
68525;BME280;55524;51.380;13.372;2022-09-09T09:44:41;100285.59;;;18.37;80.34
68525;BME280;55524;51.380;13.372;2022-09-09T09:47:19;100302.09;;;18.43;83.09
68525;BME280;55524;51.380;13.372;2022-09-09T09:52:23;100290.09;;;18.36;80.21
68525;BME280;55524;51.380;13.372;2022-09-09T09:55:04;100292.69;;;18.25;82.07
68525;BME280;55524;51.380;13.372;2022-09-09T09:57:36;100290.91;;;18.26;82.40
68525;BME280;55524;51.380;13.372;2022-09-09T10:00:20;100286.91;;;18.68;80.85
68525;BME280;55524;51.380;13.372;2022-09-09T10:03:12;100288.66;;;19.17;80.98
68525;BME280;55524;51.380;13.372;2022-09-09T10:05:57;100253.84;;;20.20;74.61
68525;BME280;55524;51.380;13.372;2022-09-09T10:08:25;100236.66;;;20.98;70.51
68525;BME280;55524;51.380;13.372;2022-09-09T10:21:40;100172.25;;;22.69;58.04
68525;BME280;55524;51.380;13.372;2022-09-09T10:27:05;100215.94;;;23.30;63.53
68525;BME280;55524;51.380;13.372;2022-09-09T10:30:12;100180.13;;;23.48;59.07
68525;BME280;55524;51.380;13.372;2022-09-09T10:33:03;100178.50;;;23.65;59.95
68525;BME280;55524;51.380;13.372;2022-09-09T10:42:04;100157.81;;;23.93;57.28
68525;BME280;55524;51.380;13.372;2022-09-09T10:56:16;100134.13;;;24.32;55.15
68525;BME280;55524;51.380;13.372;2022-09-09T10:59:09;100131.91;;;24.00;54.65
68525;BME280;55524;51.380;13.372;2022-09-09T11:07:44;100131.66;;;24.57;54.95
68525;BME280;55524;51.380;13.372;2022-09-09T11:13:11;100130.47;;;24.23;55.04
68525;BME280;55524;51.380;13.372;2022-09-09T11:15:57;100115.81;;;24.62;54.92
68525;BME280;55524;51.380;13.372;2022-09-09T11:18:30;100128.72;;;24.68;55.20
68525;BME280;55524;51.380;13.372;2022-09-09T11:21:00;100118.38;;;24.63;54.67
68525;BME280;55524;51.380;13.372;2022-09-09T11:23:43;100136.13;;;25.27;55.89
68525;BME280;55524;51.380;13.372;2022-09-09T11:26:17;100126.28;;;25.00;54.24
68525;BME280;55524;51.380;13.372;2022-09-09T11:40:53;100148.41;;;23.60;58.28
68525;BME280;55524;51.380;13.372;2022-09-09T11:43:27;100142.38;;;24.66;57.94
68525;BME280;55524;51.380;13.372;2022-09-09T11:45:57;100104.69;;;24.83;55.01
68525;BME280;55524;51.380;13.372;2022-09-09T11:49:23;100067.13;;;24.53;51.02
68525;BME280;55524;51.380;13.372;2022-09-09T11:51:34;100097.91;;;24.25;54.16
68525;BME280;55524;51.380;13.372;2022-09-09T11:54:48;100081.03;;;24.85;52.20
68525;BME280;55524;51.380;13.372;2022-09-09T11:57:36;100061.69;;;25.23;50.02
68525;BME280;55524;51.380;13.372;2022-09-09T12:00:36;100077.59;;;25.00;51.71
68525;BME280;55524;51.380;13.372;2022-09-09T12:03:08;100089.03;;;24.33;53.69
68525;BME280;55524;51.380;13.372;2022-09-09T12:06:08;100070.78;;;23.81;51.97
68525;BME280;55524;51.380;13.372;2022-09-09T12:09:06;100106.03;;;23.42;54.98
68525;BME280;55524;51.380;13.372;2022-09-09T12:12:04;100099.81;;;23.32;54.38
68525;BME280;55524;51.380;13.372;2022-09-09T12:14:42;100117.63;;;23.15;56.09
68525;BME280;55524;51.380;13.372;2022-09-09T12:17:24;100138.94;;;23.09;58.25
68525;BME280;55524;51.380;13.372;2022-09-09T12:20:10;100120.34;;;23.05;56.20
68525;BME280;55524;51.380;13.372;2022-09-09T12:28:20;100116.44;;;23.27;55.66
68525;BME280;55524;51.380;13.372;2022-09-09T12:30:55;100132.63;;;23.27;57.96
68525;BME280;55524;51.380;13.372;2022-09-09T12:33:23;100113.72;;;23.37;56.39
68525;BME280;55524;51.380;13.372;2022-09-09T12:36:13;100113.28;;;23.42;56.43
68525;BME280;55524;51.380;13.372;2022-09-09T12:39:21;100125.13;;;23.68;56.39
68525;BME280;55524;51.380;13.372;2022-09-09T12:41:51;100119.25;;;24.00;55.98
68525;BME280;55524;51.380;13.372;2022-09-09T12:44:24;100094.47;;;23.87;53.64
68525;BME280;55524;51.380;13.372;2022-09-09T12:46:52;100088.84;;;23.80;53.84
68525;BME280;55524;51.380;13.372;2022-09-09T12:54:50;100050.69;;;25.25;49.79
68525;BME280;55524;51.380;13.372;2022-09-09T13:00:38;100034.75;;;25.48;48.15
68525;BME280;55524;51.380;13.372;2022-09-09T13:03:17;99985.28;;;25.88;43.69
68525;BME280;55524;51.380;13.372;2022-09-09T13:05:43;99975.25;;;25.72;42.76
68525;BME280;55524;51.380;13.372;2022-09-09T13:08:11;99946.84;;;26.09;40.64
68525;BME280;55524;51.380;13.372;2022-09-09T13:13:18;99939.75;;;26.00;39.71
68525;BME280;55524;51.380;13.372;2022-09-09T13:15:55;99952.97;;;26.03;41.77
68525;BME280;55524;51.380;13.372;2022-09-09T13:18:35;99937.06;;;25.92;40.92
68525;BME280;55524;51.380;13.372;2022-09-09T13:21:04;99941.09;;;26.53;39.84
68525;BME280;55524;51.380;13.372;2022-09-09T13:23:35;99924.16;;;26.35;39.18
68525;BME280;55524;51.380;13.372;2022-09-09T13:26:23;99915.53;;;26.15;38.91
68525;BME280;55524;51.380;13.372;2022-09-09T13:28:50;99948.22;;;26.38;41.33
68525;BME280;55524;51.380;13.372;2022-09-09T13:31:37;99958.38;;;26.28;42.24
68525;BME280;55524;51.380;13.372;2022-09-09T13:34:27;99967.50;;;26.43;43.18
68525;BME280;55524;51.380;13.372;2022-09-09T13:37:04;99957.69;;;26.58;43.67
68525;BME280;55524;51.380;13.372;2022-09-09T13:39:33;99958.75;;;26.49;43.16
68525;BME280;55524;51.380;13.372;2022-09-09T13:42:01;99944.88;;;26.91;40.30
68525;BME280;55524;51.380;13.372;2022-09-09T13:44:38;99951.19;;;26.76;42.44
68525;BME280;55524;51.380;13.372;2022-09-09T13:47:36;99962.34;;;26.89;42.40
68525;BME280;55524;51.380;13.372;2022-09-09T13:50:22;99965.28;;;26.71;43.10
68525;BME280;55524;51.380;13.372;2022-09-09T13:52:53;99946.81;;;26.66;41.51
68525;BME280;55524;51.380;13.372;2022-09-09T13:55:22;99943.78;;;26.69;41.30
68525;BME280;55524;51.380;13.372;2022-09-09T13:57:52;99953.66;;;26.30;42.59
68525;BME280;55524;51.380;13.372;2022-09-09T14:00:19;99963.56;;;25.72;43.58
68525;BME280;55524;51.380;13.372;2022-09-09T14:02:47;99962.44;;;26.15;43.14
68525;BME280;55524;51.380;13.372;2022-09-09T14:05:13;99949.25;;;25.88;43.00
68525;BME280;55524;51.380;13.372;2022-09-09T14:07:42;99968.28;;;25.62;44.52
68525;BME280;55524;51.380;13.372;2022-09-09T14:10:10;99968.69;;;25.83;44.04
68525;BME280;55524;51.380;13.372;2022-09-09T14:12:36;99948.22;;;26.54;43.40
68525;BME280;55524;51.380;13.372;2022-09-09T14:15:04;99950.94;;;26.46;43.54
68525;BME280;55524;51.380;13.372;2022-09-09T14:17:31;99938.72;;;26.50;43.33
68525;BME280;55524;51.380;13.372;2022-09-09T14:19:58;99940.38;;;26.67;43.28
68525;BME280;55524;51.380;13.372;2022-09-09T14:22:24;99934.56;;;26.79;41.72
68525;BME280;55524;51.380;13.372;2022-09-09T14:24:52;99941.47;;;26.17;42.71
68525;BME280;55524;51.380;13.372;2022-09-09T14:27:29;99945.41;;;25.40;42.77
68525;BME280;55524;51.380;13.372;2022-09-09T14:29:56;99949.84;;;25.73;43.50
68525;BME280;55524;51.380;13.372;2022-09-09T14:32:23;99941.44;;;26.09;41.33
68525;BME280;55524;51.380;13.372;2022-09-09T14:34:50;99958.38;;;26.11;43.27
68525;BME280;55524;51.380;13.372;2022-09-09T14:37:19;99938.03;;;26.32;42.19
68525;BME280;55524;51.380;13.372;2022-09-09T14:39:46;99936.78;;;26.75;41.83
68525;BME280;55524;51.380;13.372;2022-09-09T14:42:17;99930.03;;;26.71;42.04
68525;BME280;55524;51.380;13.372;2022-09-09T14:44:45;99924.41;;;26.81;41.41
68525;BME280;55524;51.380;13.372;2022-09-09T14:47:12;99920.06;;;26.63;41.55
68525;BME280;55524;51.380;13.372;2022-09-09T14:49:38;99924.59;;;26.71;41.87
68525;BME280;55524;51.380;13.372;2022-09-09T14:52:05;99915.47;;;26.64;41.27
68525;BME280;55524;51.380;13.372;2022-09-09T14:54:32;99923.13;;;26.52;43.52
68525;BME280;55524;51.380;13.372;2022-09-09T14:56:59;99924.97;;;26.60;42.88
68525;BME280;55524;51.380;13.372;2022-09-09T14:59:25;99924.81;;;26.61;42.90
68525;BME280;55524;51.380;13.372;2022-09-09T15:01:52;99919.97;;;25.99;43.29
68525;BME280;55524;51.380;13.372;2022-09-09T15:04:19;99911.94;;;25.57;42.91
68525;BME280;55524;51.380;13.372;2022-09-09T15:06:46;99932.53;;;24.57;45.58
68525;BME280;55524;51.380;13.372;2022-09-09T15:09:15;99946.16;;;24.29;46.79
68525;BME280;55524;51.380;13.372;2022-09-09T15:11:41;99951.84;;;24.00;48.05
68525;BME280;55524;51.380;13.372;2022-09-09T15:14:09;99957.34;;;23.73;48.34
68525;BME280;55524;51.380;13.372;2022-09-09T15:16:37;99956.44;;;23.54;48.12
68525;BME280;55524;51.380;13.372;2022-09-09T15:19:21;99980.72;;;23.37;50.59
68525;BME280;55524;51.380;13.372;2022-09-09T15:21:48;99982.66;;;23.17;50.76
68525;BME280;55524;51.380;13.372;2022-09-09T15:24:15;99983.09;;;23.12;50.50
68525;BME280;55524;51.380;13.372;2022-09-09T15:26:42;100003.13;;;23.10;52.09